Time;durP1;ratioP1;P1;durP2;ratioP2;P2;SDS_P1;SDS_P2;PMS_P1;PMS_P2;Temp;Humidity;BMP_temperature;BMP_pressure;BME280_temperature;BME280_humidity;BME280_pressure;Samples;Min_cycle;Max_cycle;Signal;HPM_P1;HPM_P2
2024/03/10 00:00:57;;;;;;;4.68;1.52;;;;;;;;;;5069335;28;20036;-59
2024/03/10 00:03:22;;;;;;;6.93;1.80;;;;;;;;;;5069457;28;20033;-60
2024/03/10 00:05:48;;;;;;;6.07;1.98;;;;;;;;;;5069331;28;20044;-59
2024/03/10 00:08:13;;;;;;;4.28;1.58;;;;;;;;;;5069732;28;20029;-57
2024/03/10 00:10:41;;;;;;;3.63;1.92;;;;;;;;;;5070321;28;20029;-58
2024/03/10 00:13:06;;;;;;;3.40;1.90;;;;;;;;;;5069547;28;20043;-59
2024/03/10 00:15:31;;;;;;;8.02;2.22;;;;;;;;;;5070225;28;20044;-59
2024/03/10 00:17:57;;;;;;;5.38;1.80;;;;;;;;;;5069635;28;20607;-59
2024/03/10 00:20:23;;;;;;;5.57;1.85;;;;;;;;;;5068947;28;20055;-51
2024/03/10 00:22:48;;;;;;;4.30;1.65;;;;;;;;;;5069654;28;20037;-48
2024/03/10 00:25:15;;;;;;;3.97;1.70;;;;;;;;;;5073596;28;20078;-50
2024/03/10 00:27:41;;;;;;;4.25;1.50;;;;;;;;;;5073987;28;20036;-51
2024/03/10 00:30:09;;;;;;;3.60;1.55;;;;;;;;;;5073780;28;20039;-51
2024/03/10 00:32:37;;;;;;;2.85;1.80;;;;;;;;;;5073543;28;20039;-54
2024/03/10 00:35:05;;;;;;;3.40;1.58;;;;;;;;;;5073032;28;20442;-53
2024/03/10 00:37:31;;;;;;;3.67;1.77;;;;;;;;;;5072765;28;20606;-53
2024/03/10 00:39:57;;;;;;;3.90;1.70;;;;;;;;;;5074051;28;20089;-51
2024/03/10 00:42:22;;;;;;;6.45;1.80;;;;;;;;;;5073861;28;20044;-51
2024/03/10 00:44:48;;;;;;;2.85;1.58;;;;;;;;;;5073446;28;20041;-50
2024/03/10 00:47:13;;;;;;;3.17;1.50;;;;;;;;;;5073495;28;20111;-51
2024/03/10 00:49:38;;;;;;;2.70;1.73;;;;;;;;;;5073193;28;20510;-50
2024/03/10 00:52:07;;;;;;;3.05;1.58;;;;;;;;;;5072759;28;20078;-49
2024/03/10 00:54:33;;;;;;;3.42;1.65;;;;;;;;;;5073282;28;20047;-50
2024/03/10 00:56:59;;;;;;;3.50;1.60;;;;;;;;;;5073745;28;20043;-53
2024/03/10 00:59:24;;;;;;;5.18;1.73;;;;;;;;;;5072765;28;20119;-51
2024/03/10 01:01:50;;;;;;;2.50;1.50;;;;;;;;;;5073683;28;20028;-53
2024/03/10 01:04:15;;;;;;;4.32;1.48;;;;;;;;;;5072834;28;20476;-50
2024/03/10 01:06:40;;;;;;;3.08;1.50;;;;;;;;;;5072731;28;20047;-58
2024/03/10 01:09:08;;;;;;;3.13;1.77;;;;;;;;;;5073114;28;20035;-58
2024/03/10 01:11:39;;;;;;;4.30;1.60;;;;;;;;;;5073521;28;20036;-59
2024/03/10 01:14:05;;;;;;;2.60;1.35;;;;;;;;;;5073073;28;20062;-58
2024/03/10 01:16:31;;;;;;;3.38;1.73;;;;;;;;;;5072688;28;20029;-59
2024/03/10 01:18:56;;;;;;;2.95;1.40;;;;;;;;;;5072536;28;20045;-59
2024/03/10 01:21:22;;;;;;;3.38;1.65;;;;;;;;;;5072545;28;20121;-59
2024/03/10 01:23:48;;;;;;;2.65;1.52;;;;;;;;;;5070878;28;20117;-58
2024/03/10 01:26:13;;;;;;;2.90;1.60;;;;;;;;;;5073075;28;20039;-48
2024/03/10 01:28:39;;;;;;;3.13;1.60;;;;;;;;;;5073177;28;20047;-51
2024/03/10 01:31:05;;;;;;;2.67;1.42;;;;;;;;;;5071903;28;20044;-49
2024/03/10 01:33:33;;;;;;;3.45;1.90;;;;;;;;;;5065486;28;20132;-53
2024/03/10 01:35:58;;;;;;;2.60;1.55;;;;;;;;;;5071455;28;20044;-53
2024/03/10 01:38:23;;;;;;;2.70;1.65;;;;;;;;;;5072411;28;20021;-52
2024/03/10 01:40:49;;;;;;;2.97;1.65;;;;;;;;;;5072614;28;20103;-52
2024/03/10 01:43:14;;;;;;;2.42;1.42;;;;;;;;;;5072852;28;20067;-52
2024/03/10 01:45:39;;;;;;;2.72;1.40;;;;;;;;;;5070737;28;20078;-52
2024/03/10 01:48:05;;;;;;;3.22;1.80;;;;;;;;;;5071567;28;20131;-49
2024/03/10 01:50:31;;;;;;;2.70;1.55;;;;;;;;;;5049247;28;20032;-52
2024/03/10 01:52:56;;;;;;;3.47;1.88;;;;;;;;;;5072081;28;20024;-52
2024/03/10 01:55:22;;;;;;;2.92;1.60;;;;;;;;;;5071701;28;20499;-51
2024/03/10 01:57:47;;;;;;;2.80;1.58;;;;;;;;;;5071430;28;20083;-48
2024/03/10 02:00:13;;;;;;;2.67;1.58;;;;;;;;;;5054046;28;20429;-51
2024/03/10 02:02:41;;;;;;;2.97;1.70;;;;;;;;;;5070166;28;20125;-55
2024/03/10 02:05:08;;;;;;;4.00;2.05;;;;;;;;;;5071708;28;20033;-55
2024/03/10 02:07:33;;;;;;;2.55;1.58;;;;;;;;;;5071235;28;20449;-52
2024/03/10 02:09:59;;;;;;;2.95;1.50;;;;;;;;;;5071646;28;20036;-50
2024/03/10 02:12:24;;;;;;;4.10;1.80;;;;;;;;;;5071702;28;20041;-52
2024/03/10 02:15:06;;;;;;;3.00;1.70;;;;;;;;;;5072133;28;20539;-52
2024/03/10 02:17:32;;;;;;;3.28;1.77;;;;;;;;;;5071710;28;20067;-51
2024/03/10 02:19:57;;;;;;;3.08;1.52;;;;;;;;;;5071645;28;20058;-51
2024/03/10 02:22:24;;;;;;;3.75;1.50;;;;;;;;;;5071322;28;20051;-50
2024/03/10 02:24:50;;;;;;;3.00;1.60;;;;;;;;;;5071381;28;20037;-54
2024/03/10 02:27:17;;;;;;;2.90;1.40;;;;;;;;;;5071733;28;20043;-50
2024/03/10 02:48:53;;;;;;;2.40;1.48;;;;;;;;;;5065208;28;20055;-50
2024/03/10 02:51:19;;;;;;;2.50;1.55;;;;;;;;;;5070749;28;20040;-50
2024/03/10 02:53:46;;;;;;;2.42;1.40;;;;;;;;;;5070991;28;20047;-52
2024/03/10 02:56:13;;;;;;;2.03;1.20;;;;;;;;;;5070923;28;20025;-53
2024/03/10 02:58:39;;;;;;;2.50;1.38;;;;;;;;;;5070969;28;20044;-53
2024/03/10 03:01:07;;;;;;;2.25;1.27;;;;;;;;;;5069236;28;20492;-53
2024/03/10 03:03:34;;;;;;;2.78;1.40;;;;;;;;;;5070773;28;20104;-50
2024/03/10 03:05:59;;;;;;;2.72;1.60;;;;;;;;;;5069983;28;20038;-54
2024/03/10 03:08:25;;;;;;;2.63;1.40;;;;;;;;;;5071114;28;20040;-53
2024/03/10 03:10:50;;;;;;;2.80;1.50;;;;;;;;;;5070998;28;20103;-54
2024/03/10 03:13:17;;;;;;;3.15;1.60;;;;;;;;;;5071023;28;20024;-51
2024/03/10 03:15:42;;;;;;;3.97;1.48;;;;;;;;;;5070701;28;20044;-53
2024/03/10 03:18:07;;;;;;;2.40;1.45;;;;;;;;;;5070066;28;20029;-50
2024/03/10 03:20:34;;;;;;;2.75;1.40;;;;;;;;;;5069450;28;20048;-54
2024/03/10 03:23:02;;;;;;;2.30;1.20;;;;;;;;;;5070256;28;20107;-50
2024/03/10 03:25:28;;;;;;;3.13;1.55;;;;;;;;;;5069243;28;20024;-54
2024/03/10 03:27:54;;;;;;;2.78;1.27;;;;;;;;;;5070684;28;20483;-49
2024/03/10 03:30:20;;;;;;;2.30;1.23;;;;;;;;;;5070495;28;20143;-50
2024/03/10 03:32:47;;;;;;;2.42;1.35;;;;;;;;;;5070341;28;20037;-49
2024/03/10 03:35:15;;;;;;;2.30;1.40;;;;;;;;;;5069961;28;20181;-54
2024/03/10 03:37:41;;;;;;;2.30;1.30;;;;;;;;;;5070000;28;20560;-52
2024/03/10 03:40:07;;;;;;;2.70;1.45;;;;;;;;;;5070805;28;20039;-51
2024/03/10 03:42:35;;;;;;;3.10;1.40;;;;;;;;;;5070221;28;20028;-51
2024/03/10 03:45:01;;;;;;;2.45;1.20;;;;;;;;;;5070107;28;20094;-54
2024/03/10 03:47:27;;;;;;;2.42;1.30;;;;;;;;;;5070221;28;20028;-51
2024/03/10 03:49:54;;;;;;;2.35;1.10;;;;;;;;;;5070412;28;20093;-50
2024/03/10 03:52:19;;;;;;;2.17;1.20;;;;;;;;;;5069453;28;20056;-53
2024/03/10 03:54:45;;;;;;;2.55;1.40;;;;;;;;;;5070244;28;20056;-51
2024/03/10 03:57:10;;;;;;;2.35;1.15;;;;;;;;;;5070259;28;20082;-53
2024/03/10 03:59:39;;;;;;;2.40;1.30;;;;;;;;;;5068843;28;20040;-49
2024/03/10 04:02:04;;;;;;;3.08;1.20;;;;;;;;;;5069316;28;20075;-53
2024/03/10 04:04:29;;;;;;;2.35;1.38;;;;;;;;;;5070119;28;20925;-51
2024/03/10 04:06:55;;;;;;;2.33;1.17;;;;;;;;;;5068915;28;20464;-51
2024/03/10 04:09:21;;;;;;;1.83;1.27;;;;;;;;;;5069824;28;20452;-50
2024/03/10 04:11:46;;;;;;;2.90;1.10;;;;;;;;;;5070453;28;20499;-50
2024/03/10 04:14:13;;;;;;;2.72;1.30;;;;;;;;;;5070131;28;20044;-53
2024/03/10 04:16:39;;;;;;;2.92;1.30;;;;;;;;;;5068368;28;20124;-51
2024/03/10 04:19:04;;;;;;;2.67;1.33;;;;;;;;;;5069061;28;20123;-50
2024/03/10 04:21:30;;;;;;;2.10;1.08;;;;;;;;;;5069157;28;20045;-50
2024/03/10 04:23:56;;;;;;;2.58;1.20;;;;;;;;;;5069669;28;20041;-49
2024/03/10 04:26:23;;;;;;;2.10;1.08;;;;;;;;;;5070029;28;20030;-52
2024/03/10 04:28:49;;;;;;;1.85;1.10;;;;;;;;;;5070055;28;20047;-49
2024/03/10 04:31:16;;;;;;;2.28;1.27;;;;;;;;;;5067383;28;20540;-51
2024/03/10 04:33:42;;;;;;;2.50;1.10;;;;;;;;;;5068999;28;20040;-53
2024/03/10 04:36:08;;;;;;;2.38;1.20;;;;;;;;;;5069432;28;20093;-54
2024/03/10 04:38:34;;;;;;;1.70;1.10;;;;;;;;;;5069543;28;20041;-51
2024/03/10 04:40:59;;;;;;;2.00;1.05;;;;;;;;;;5069736;28;20031;-50
2024/03/10 04:43:24;;;;;;;1.63;0.95;;;;;;;;;;5069733;28;20052;-49
2024/03/10 04:45:53;;;;;;;1.92;1.02;;;;;;;;;;5069621;28;20068;-51
2024/03/10 04:48:18;;;;;;;1.67;0.93;;;;;;;;;;5069164;28;20037;-49
2024/03/10 04:50:44;;;;;;;1.52;0.98;;;;;;;;;;5069495;28;20040;-54
2024/03/10 04:53:09;;;;;;;1.92;1.00;;;;;;;;;;5069500;28;20032;-51
2024/03/10 04:55:34;;;;;;;1.85;1.15;;;;;;;;;;5069082;28;20085;-51
2024/03/10 04:58:00;;;;;;;1.70;1.02;;;;;;;;;;5069990;28;20043;-49
2024/03/10 05:00:25;;;;;;;2.78;1.30;;;;;;;;;;5069464;28;20060;-51
2024/03/10 05:02:51;;;;;;;2.00;0.88;;;;;;;;;;5069430;28;20640;-51
2024/03/10 05:05:17;;;;;;;2.00;0.90;;;;;;;;;;5068445;28;20041;-49
2024/03/10 05:07:42;;;;;;;2.30;1.00;;;;;;;;;;5068798;28;20040;-52
2024/03/10 05:10:08;;;;;;;2.30;1.13;;;;;;;;;;5068601;28;20036;-52
2024/03/10 05:12:35;;;;;;;1.65;1.00;;;;;;;;;;5072877;28;20041;-51
2024/03/10 05:15:03;;;;;;;2.22;1.25;;;;;;;;;;5072930;28;20090;-53
2024/03/10 05:17:29;;;;;;;1.48;0.90;;;;;;;;;;5072859;28;20532;-53
2024/03/10 05:19:54;;;;;;;2.30;1.00;;;;;;;;;;5073196;28;20555;-52
2024/03/10 05:22:20;;;;;;;4.10;1.48;;;;;;;;;;5073300;28;20111;-50
2024/03/10 05:24:45;;;;;;;2.00;1.10;;;;;;;;;;5072673;28;20043;-52
2024/03/10 05:27:10;;;;;;;2.30;1.20;;;;;;;;;;5072843;28;20044;-50
2024/03/10 05:29:36;;;;;;;2.00;0.90;;;;;;;;;;5072466;28;20112;-51
2024/03/10 05:32:05;;;;;;;2.30;1.10;;;;;;;;;;5073050;28;20039;-50
2024/03/10 05:34:32;;;;;;;1.90;1.10;;;;;;;;;;5072415;28;20109;-52
2024/03/10 05:36:57;;;;;;;2.30;1.10;;;;;;;;;;5073061;28;20025;-53
2024/03/10 05:39:23;;;;;;;1.67;1.00;;;;;;;;;;5072978;28;20085;-52
2024/03/10 05:41:48;;;;;;;3.83;1.10;;;;;;;;;;5072241;28;20399;-51
2024/03/10 05:44:16;;;;;;;2.42;1.20;;;;;;;;;;5072017;28;20111;-52
2024/03/10 05:46:41;;;;;;;2.10;1.10;;;;;;;;;;5072829;28;20033;-52
2024/03/10 05:49:07;;;;;;;2.58;1.20;;;;;;;;;;5072372;28;20035;-52
2024/03/10 05:51:32;;;;;;;2.67;1.10;;;;;;;;;;5072400;28;20060;-54
2024/03/10 05:53:58;;;;;;;2.65;1.00;;;;;;;;;;5072450;28;20032;-52
2024/03/10 05:56:23;;;;;;;2.40;1.33;;;;;;;;;;5072141;28;20044;-50
2024/03/10 05:58:49;;;;;;;2.72;1.10;;;;;;;;;;5071849;28;20032;-51
2024/03/10 06:01:18;;;;;;;2.33;1.13;;;;;;;;;;5071940;28;20032;-51
2024/03/10 06:03:43;;;;;;;2.70;1.00;;;;;;;;;;5072350;28;20064;-54
2024/03/10 06:06:08;;;;;;;2.80;1.33;;;;;;;;;;5071848;28;20495;-50
2024/03/10 06:08:34;;;;;;;2.28;1.10;;;;;;;;;;5070434;28;20503;-51
2024/03/10 06:11:00;;;;;;;2.47;1.00;;;;;;;;;;5071358;28;20047;-50
2024/03/10 06:13:25;;;;;;;2.05;0.95;;;;;;;;;;5071579;28;20031;-52
2024/03/10 06:15:52;;;;;;;1.80;1.08;;;;;;;;;;5072031;28;20043;-58
2024/03/10 06:18:24;;;;;;;1.85;0.98;;;;;;;;;;5072073;28;20655;-59
2024/03/10 06:26:23;;;;;;;2.83;1.00;;;;;;;;;;5071367;28;20051;-52
2024/03/10 06:28:49;;;;;;;2.25;1.20;;;;;;;;;;5065300;28;20064;-59
2024/03/10 06:31:16;;;;;;;2.03;1.23;;;;;;;;;;5070861;28;20082;-58
2024/03/10 06:33:41;;;;;;;1.98;1.00;;;;;;;;;;5053385;28;20032;-56
2024/03/10 06:36:10;;;;;;;1.73;1.00;;;;;;;;;;5071366;28;20032;-58
2024/03/10 06:38:38;;;;;;;1.98;1.05;;;;;;;;;;5071500;28;20037;-59
2024/03/10 06:41:06;;;;;;;3.40;1.08;;;;;;;;;;5071110;28;20111;-58
2024/03/10 06:43:32;;;;;;;2.30;0.98;;;;;;;;;;5070455;28;20554;-58
2024/03/10 06:45:57;;;;;;;1.90;1.00;;;;;;;;;;5071100;28;20040;-50
2024/03/10 06:48:23;;;;;;;1.88;1.00;;;;;;;;;;5071639;28;20388;-51
2024/03/10 06:50:49;;;;;;;1.45;0.80;;;;;;;;;;5071294;28;20032;-50
2024/03/10 06:53:14;;;;;;;2.58;1.13;;;;;;;;;;5070322;28;20395;-52
2024/03/10 06:55:40;;;;;;;1.80;0.90;;;;;;;;;;5071235;28;20029;-49
2024/03/10 06:58:05;;;;;;;1.63;0.90;;;;;;;;;;5071469;28;20044;-52
2024/03/10 07:00:32;;;;;;;2.03;1.02;;;;;;;;;;5070392;28;20049;-51
2024/03/10 07:02:58;;;;;;;3.90;0.90;;;;;;;;;;5071290;28;20170;-51
2024/03/10 07:05:24;;;;;;;1.63;0.93;;;;;;;;;;5071174;28;20197;-49
2024/03/10 07:07:50;;;;;;;1.95;0.90;;;;;;;;;;5069843;28;20044;-51
2024/03/10 07:10:16;;;;;;;1.77;1.00;;;;;;;;;;5070563;28;20028;-51
2024/03/10 07:12:41;;;;;;;1.58;0.80;;;;;;;;;;5071099;28;20407;-58
2024/03/10 07:15:09;;;;;;;2.65;1.33;;;;;;;;;;5070153;28;20063;-59
2024/03/10 07:17:38;;;;;;;1.90;0.80;;;;;;;;;;5070351;28;20029;-58
2024/03/10 07:20:07;;;;;;;1.75;1.00;;;;;;;;;;5070825;28;20563;-58
2024/03/10 07:22:33;;;;;;;1.70;1.00;;;;;;;;;;5069777;28;20507;-59
2024/03/10 07:24:59;;;;;;;1.77;0.93;;;;;;;;;;5070463;28;20064;-51
2024/03/10 07:27:24;;;;;;;1.95;0.88;;;;;;;;;;5070877;28;20036;-55
2024/03/10 07:29:50;;;;;;;1.92;1.00;;;;;;;;;;5070264;28;20383;-51
2024/03/10 07:32:17;;;;;;;1.45;0.80;;;;;;;;;;5070336;28;20136;-51
2024/03/10 07:34:43;;;;;;;1.67;0.93;;;;;;;;;;5069752;28;20047;-51
2024/03/10 07:37:09;;;;;;;2.33;1.10;;;;;;;;;;5070493;28;20036;-51
2024/03/10 07:39:35;;;;;;;1.83;0.88;;;;;;;;;;5069929;28;20047;-60
2024/03/10 07:42:00;;;;;;;1.90;1.00;;;;;;;;;;5070305;28;20127;-60
2024/03/10 07:44:27;;;;;;;5.15;1.02;;;;;;;;;;5069786;28;20128;-60
2024/03/10 07:46:53;;;;;;;2.00;0.93;;;;;;;;;;5070238;28;20040;-58
2024/03/10 07:49:18;;;;;;;2.05;0.88;;;;;;;;;;5070478;28;20480;-58
2024/03/10 07:51:44;;;;;;;3.55;0.90;;;;;;;;;;5070198;28;20037;-53
2024/03/10 07:54:10;;;;;;;1.67;0.93;;;;;;;;;;5069820;28;20052;-50
2024/03/10 07:56:36;;;;;;;1.42;0.85;;;;;;;;;;5070212;28;20064;-51
2024/03/10 07:59:01;;;;;;;1.92;1.00;;;;;;;;;;5070172;28;20464;-51
2024/03/10 08:01:27;;;;;;;2.30;1.20;;;;;;;;;;5069856;28;20110;-59
2024/03/10 08:03:54;;;;;;;1.73;1.00;;;;;;;;;;5069683;28;20505;-59
2024/03/10 08:06:21;;;;;;;1.70;0.90;;;;;;;;;;5068890;28;20522;-59
2024/03/10 08:08:47;;;;;;;1.83;0.90;;;;;;;;;;5070096;28;20079;-61
2024/03/10 08:11:12;;;;;;;2.03;1.05;;;;;;;;;;5068213;28;20585;-59
2024/03/10 08:13:40;;;;;;;1.90;1.00;;;;;;;;;;5069217;28;20106;-49
2024/03/10 08:16:06;;;;;;;2.78;1.00;;;;;;;;;;5068999;28;20035;-50
2024/03/10 08:18:31;;;;;;;1.98;1.20;;;;;;;;;;5069150;28;20040;-50
2024/03/10 08:20:57;;;;;;;2.03;1.00;;;;;;;;;;5070055;28;20060;-50
2024/03/10 08:23:22;;;;;;;1.77;0.90;;;;;;;;;;5069875;28;20032;-51
2024/03/10 08:25:48;;;;;;;1.77;0.90;;;;;;;;;;5069648;28;20357;-52
2024/03/10 08:28:14;;;;;;;3.63;1.20;;;;;;;;;;5069639;28;20396;-51
2024/03/10 08:30:39;;;;;;;2.65;1.25;;;;;;;;;;5069904;28;20039;-53
2024/03/10 08:33:06;;;;;;;1.95;0.95;;;;;;;;;;5069758;28;20036;-50
2024/03/10 08:35:31;;;;;;;2.47;1.10;;;;;;;;;;5069546;28;20051;-50
2024/03/10 08:37:57;;;;;;;1.75;0.90;;;;;;;;;;5069688;28;20040;-50
2024/03/10 08:40:22;;;;;;;1.20;0.80;;;;;;;;;;5069163;28;20060;-49
2024/03/10 08:42:48;;;;;;;2.47;1.10;;;;;;;;;;5068719;28;20032;-50
2024/03/10 08:45:14;;;;;;;1.85;1.00;;;;;;;;;;5052659;28;20458;-48
2024/03/10 08:47:44;;;;;;;2.13;0.90;;;;;;;;;;5065367;28;20040;-54
2024/03/10 08:50:10;;;;;;;1.70;0.90;;;;;;;;;;5072314;28;20515;-54
2024/03/10 08:52:37;;;;;;;1.75;1.00;;;;;;;;;;5073206;28;20029;-50
2024/03/10 08:55:06;;;;;;;1.85;1.00;;;;;;;;;;5073704;28;20041;-53
2024/03/10 08:57:35;;;;;;;2.85;1.00;;;;;;;;;;5072862;28;20440;-53
2024/03/10 09:00:01;;;;;;;3.42;1.00;;;;;;;;;;5072391;28;20028;-54
2024/03/10 09:02:27;;;;;;;4.07;2.30;;;;;;;;;;5073148;28;20483;-52
2024/03/10 09:04:52;;;;;;;1.92;0.98;;;;;;;;;;5073226;28;20048;-52
2024/03/10 09:07:20;;;;;;;2.45;1.02;;;;;;;;;;5073172;28;20475;-54
2024/03/10 09:09:45;;;;;;;2.20;1.10;;;;;;;;;;5074497;28;20037;-52
2024/03/10 09:12:10;;;;;;;2.20;1.10;;;;;;;;;;5077852;28;20073;-54
2024/03/10 09:14:36;;;;;;;1.75;0.90;;;;;;;;;;5072976;28;20178;-54
2024/03/10 09:17:03;;;;;;;1.48;0.90;;;;;;;;;;5073259;28;20115;-54
2024/03/10 09:19:31;;;;;;;1.83;0.93;;;;;;;;;;5072605;28;20052;-54
2024/03/10 09:21:58;;;;;;;1.90;0.90;;;;;;;;;;5072825;28;20229;-54
2024/03/10 09:24:24;;;;;;;2.92;0.98;;;;;;;;;;5072800;28;20670;-52
2024/03/10 09:26:50;;;;;;;1.50;0.90;;;;;;;;;;5072778;28;20110;-53
2024/03/10 09:29:15;;;;;;;1.77;1.00;;;;;;;;;;5072500;28;20060;-51
2024/03/10 09:31:43;;;;;;;1.75;1.00;;;;;;;;;;5072045;28;20550;-52
2024/03/10 09:34:11;;;;;;;2.35;1.10;;;;;;;;;;5070400;28;20193;-51
2024/03/10 09:36:37;;;;;;;2.20;1.00;;;;;;;;;;5071854;28;20028;-53
2024/03/10 09:39:03;;;;;;;2.40;1.02;;;;;;;;;;5072565;28;20052;-50
2024/03/10 09:41:32;;;;;;;2.10;1.10;;;;;;;;;;5072662;28;20443;-53
2024/03/10 09:43:58;;;;;;;1.73;0.90;;;;;;;;;;5071786;28;20071;-49
2024/03/10 09:46:23;;;;;;;2.53;0.90;;;;;;;;;;5072148;28;20078;-54
2024/03/10 09:48:49;;;;;;;2.00;1.15;;;;;;;;;;5054916;28;20530;-51
2024/03/10 09:51:15;;;;;;;2.25;1.00;;;;;;;;;;5072529;28;20047;-54
2024/03/10 09:53:44;;;;;;;1.92;1.00;;;;;;;;;;5071626;28;20475;-53
2024/03/10 09:56:12;;;;;;;2.17;1.15;;;;;;;;;;5070382;28;20551;-52
2024/03/10 09:58:53;;;;;;;1.73;0.90;;;;;;;;;;5071539;28;20033;-55
2024/03/10 10:01:18;;;;;;;1.20;0.75;;;;;;;;;;5071033;28;20119;-59
2024/03/10 10:03:52;;;;;;;3.05;1.10;;;;;;;;;;5071148;28;20120;-60
2024/03/10 10:06:19;;;;;;;1.70;0.90;;;;;;;;;;5063595;28;20036;-58
2024/03/10 10:08:51;;;;;;;1.70;1.00;;;;;;;;;;5071181;28;20044;-58
2024/03/10 10:11:18;;;;;;;1.67;0.93;;;;;;;;;;5072540;28;20051;-58
2024/03/10 10:13:43;;;;;;;1.70;0.80;;;;;;;;;;5070197;28;20024;-61
2024/03/10 10:16:09;;;;;;;1.50;0.90;;;;;;;;;;5071994;28;20046;-60
2024/03/10 10:18:37;;;;;;;4.80;0.93;;;;;;;;;;5071200;28;20075;-59
2024/03/10 10:21:07;;;;;;;3.35;0.93;;;;;;;;;;5072206;28;20040;-59
2024/03/10 10:23:33;;;;;;;1.50;0.80;;;;;;;;;;5069954;28;20049;-59
2024/03/10 10:26:09;;;;;;;2.65;0.85;;;;;;;;;;5070692;28;20106;-59
2024/03/10 10:28:37;;;;;;;2.10;1.00;;;;;;;;;;5070671;28;20037;-59
2024/03/10 10:31:10;;;;;;;4.60;1.10;;;;;;;;;;5071151;28;20484;-59
2024/03/10 10:33:38;;;;;;;1.35;0.70;;;;;;;;;;5071307;28;20631;-60
2024/03/10 10:36:05;;;;;;;2.45;1.00;;;;;;;;;;5071389;28;20051;-60
2024/03/10 10:38:37;;;;;;;2.28;0.90;;;;;;;;;;5071573;28;20035;-60
2024/03/10 10:41:05;;;;;;;1.17;0.60;;;;;;;;;;5071232;28;20384;-59
2024/03/10 10:43:32;;;;;;;3.25;0.90;;;;;;;;;;5070702;28;20657;-59
2024/03/10 10:45:58;;;;;;;1.70;0.90;;;;;;;;;;5053189;28;20142;-59
2024/03/10 10:48:25;;;;;;;1.52;0.80;;;;;;;;;;5070867;28;20044;-59
2024/03/10 10:50:51;;;;;;;2.08;0.80;;;;;;;;;;5053686;28;20105;-58
2024/03/10 10:53:17;;;;;;;1.88;0.90;;;;;;;;;;5071265;28;20497;-59
2024/03/10 10:55:45;;;;;;;2.15;0.80;;;;;;;;;;5052777;28;20115;-59
2024/03/10 10:58:18;;;;;;;1.75;0.90;;;;;;;;;;5070038;28;20032;-59
2024/03/10 11:00:53;;;;;;;1.77;0.90;;;;;;;;;;5065871;28;20123;-60
2024/03/10 11:03:24;;;;;;;1.50;0.70;;;;;;;;;;5052564;28;20078;-59
2024/03/10 11:06:02;;;;;;;2.08;1.00;;;;;;;;;;5070915;28;20051;-59
2024/03/10 11:08:39;;;;;;;1.40;0.80;;;;;;;;;;5069952;28;20047;-60
2024/03/10 11:11:05;;;;;;;1.88;0.80;;;;;;;;;;5068881;28;20111;-60
2024/03/10 11:13:31;;;;;;;1.38;0.80;;;;;;;;;;5071102;28;20067;-59
2024/03/10 11:16:04;;;;;;;2.03;0.90;;;;;;;;;;5052782;28;20036;-60
2024/03/10 11:18:30;;;;;;;3.28;2.25;;;;;;;;;;5070384;28;20396;-52
2024/03/10 11:20:57;;;;;;;1.77;0.73;;;;;;;;;;5070565;28;20442;-51
2024/03/10 11:23:24;;;;;;;1.63;0.82;;;;;;;;;;5060244;28;20104;-51
2024/03/10 11:25:51;;;;;;;1.67;0.70;;;;;;;;;;5070232;28;20029;-53
2024/03/10 11:28:25;;;;;;;2.65;0.80;;;;;;;;;;5070005;28;20044;-55
2024/03/10 11:30:50;;;;;;;1.50;0.85;;;;;;;;;;5070638;28;20029;-52
2024/03/10 11:33:21;;;;;;;1.30;0.80;;;;;;;;;;5070563;28;20042;-51
2024/03/10 11:35:46;;;;;;;1.55;0.70;;;;;;;;;;5070003;28;20063;-53
2024/03/10 11:38:12;;;;;;;1.42;0.80;;;;;;;;;;5070482;28;20294;-52
2024/03/10 11:40:37;;;;;;;3.63;0.90;;;;;;;;;;5070380;28;20082;-55
2024/03/10 11:43:02;;;;;;;1.45;0.90;;;;;;;;;;5069958;28;20039;-55
2024/03/10 11:45:31;;;;;;;1.42;0.70;;;;;;;;;;5068167;28;20052;-51
2024/03/10 11:47:57;;;;;;;1.85;0.80;;;;;;;;;;5070054;28;20043;-51
2024/03/10 11:50:22;;;;;;;1.35;0.80;;;;;;;;;;5069984;28;20040;-51
2024/03/10 11:52:48;;;;;;;1.27;0.80;;;;;;;;;;5070231;28;20032;-55
2024/03/10 11:55:18;;;;;;;1.20;0.75;;;;;;;;;;5070654;28;20029;-54
2024/03/10 11:57:43;;;;;;;0.95;0.60;;;;;;;;;;5067972;28;20124;-51
2024/03/10 12:00:14;;;;;;;1.50;0.70;;;;;;;;;;5070126;28;20107;-57
2024/03/10 12:02:40;;;;;;;1.42;0.80;;;;;;;;;;5070099;28;20093;-60
2024/03/10 12:05:05;;;;;;;1.80;0.77;;;;;;;;;;5069687;28;20048;-59
2024/03/10 12:07:32;;;;;;;1.30;0.70;;;;;;;;;;5069256;28;20032;-60
2024/03/10 12:09:58;;;;;;;1.83;0.80;;;;;;;;;;5069156;28;20036;-60
2024/03/10 12:12:30;;;;;;;1.63;0.80;;;;;;;;;;5069256;28;20037;-54
2024/03/10 12:14:56;;;;;;;2.78;0.70;;;;;;;;;;5069349;28;20029;-53
2024/03/10 12:17:22;;;;;;;1.10;0.60;;;;;;;;;;5069752;28;20059;-53
2024/03/10 12:19:47;;;;;;;1.08;0.75;;;;;;;;;;5069336;28;20128;-53
2024/03/10 12:22:13;;;;;;;1.02;0.60;;;;;;;;;;5069263;28;20086;-59
2024/03/10 12:24:39;;;;;;;1.25;0.65;;;;;;;;;;5070065;28;20127;-59
2024/03/10 12:27:05;;;;;;;1.40;0.70;;;;;;;;;;5069895;28;20040;-59
2024/03/10 12:29:31;;;;;;;1.55;0.60;;;;;;;;;;5057459;28;20040;-58
2024/03/10 12:31:56;;;;;;;1.02;0.60;;;;;;;;;;5068986;28;20036;-59
2024/03/10 12:34:21;;;;;;;1.23;0.65;;;;;;;;;;5069813;28;20054;-59
2024/03/10 12:36:48;;;;;;;0.77;0.60;;;;;;;;;;5069453;28;20067;-59
2024/03/10 12:39:14;;;;;;;0.85;0.57;;;;;;;;;;5069610;28;20059;-59
2024/03/10 12:41:39;;;;;;;1.92;0.90;;;;;;;;;;5068717;28;20562;-58
2024/03/10 12:44:06;;;;;;;1.52;0.70;;;;;;;;;;5069546;28;20034;-59
2024/03/10 12:46:33;;;;;;;0.90;0.55;;;;;;;;;;5069592;28;20028;-59
2024/03/10 12:48:59;;;;;;;0.93;0.63;;;;;;;;;;5069665;28;20132;-57
2024/03/10 12:51:25;;;;;;;1.13;0.60;;;;;;;;;;5069496;28;20032;-58
2024/03/10 12:53:51;;;;;;;0.95;0.60;;;;;;;;;;5068377;28;20032;-57
2024/03/10 12:56:16;;;;;;;2.00;0.60;;;;;;;;;;5058176;28;20033;-57
2024/03/10 12:58:43;;;;;;;0.73;0.57;;;;;;;;;;5069642;28;20061;-58
2024/03/10 13:01:09;;;;;;;1.08;0.70;;;;;;;;;;5069061;28;20478;-59
2024/03/10 13:03:35;;;;;;;1.60;0.70;;;;;;;;;;5068325;28;20049;-59
2024/03/10 13:06:04;;;;;;;1.00;0.60;;;;;;;;;;5068941;28;20035;-57
2024/03/10 13:08:29;;;;;;;0.70;0.50;;;;;;;;;;5068172;28;20032;-57
2024/03/10 13:10:55;;;;;;;2.28;0.52;;;;;;;;;;5069043;28;20240;-58
2024/03/10 13:13:20;;;;;;;1.20;0.60;;;;;;;;;;5068275;28;20048;-57
2024/03/10 13:15:46;;;;;;;1.60;0.60;;;;;;;;;;5068770;28;20033;-58
2024/03/10 13:18:14;;;;;;;1.38;0.70;;;;;;;;;;5069325;28;20044;-59
2024/03/10 13:20:40;;;;;;;0.88;0.60;;;;;;;;;;5068398;28;20048;-56
2024/03/10 13:23:06;;;;;;;3.83;0.70;;;;;;;;;;5068828;28;20070;-56
2024/03/10 13:25:32;;;;;;;1.30;0.68;;;;;;;;;;5069445;28;20056;-58
2024/03/10 13:27:57;;;;;;;1.05;0.65;;;;;;;;;;5060672;28;20040;-58
2024/03/10 13:30:23;;;;;;;1.00;0.52;;;;;;;;;;5064933;28;20143;-58
2024/03/10 13:32:48;;;;;;;0.73;0.50;;;;;;;;;;5067474;28;20039;-58
2024/03/10 13:35:14;;;;;;;1.10;0.60;;;;;;;;;;5055098;28;20491;-58
2024/03/10 13:37:39;;;;;;;0.50;0.50;;;;;;;;;;5068681;28;20452;-57
2024/03/10 13:40:10;;;;;;;1.05;0.60;;;;;;;;;;5069201;28;20494;-59
2024/03/10 13:42:37;;;;;;;1.38;0.50;;;;;;;;;;5069458;28;20126;-58
2024/03/10 13:45:04;;;;;;;1.00;0.60;;;;;;;;;;5068989;28;20040;-58
2024/03/10 13:47:30;;;;;;;0.80;0.50;;;;;;;;;;5068160;28;20481;-58
2024/03/10 13:49:55;;;;;;;1.17;0.68;;;;;;;;;;5068920;28;20037;-58
2024/03/10 13:52:21;;;;;;;0.73;0.50;;;;;;;;;;5068845;28;20039;-57
2024/03/10 13:54:50;;;;;;;1.20;0.70;;;;;;;;;;5069083;28;20161;-57
2024/03/10 13:57:15;;;;;;;0.50;0.40;;;;;;;;;;5068377;28;20036;-58
2024/03/10 13:59:43;;;;;;;0.50;0.40;;;;;;;;;;5068596;28;20044;-57
2024/03/10 14:02:09;;;;;;;1.88;0.52;;;;;;;;;;5072854;28;20403;-58
2024/03/10 14:04:34;;;;;;;0.77;0.60;;;;;;;;;;5050472;28;20036;-57
2024/03/10 14:07:00;;;;;;;0.95;0.60;;;;;;;;;;5068421;28;20040;-58
2024/03/10 14:09:28;;;;;;;0.80;0.50;;;;;;;;;;5068954;28;20707;-58
2024/03/10 14:11:55;;;;;;;1.10;0.60;;;;;;;;;;5069402;28;20048;-58
2024/03/10 14:14:20;;;;;;;1.13;0.50;;;;;;;;;;5067371;28;20039;-58
2024/03/10 14:16:45;;;;;;;0.90;0.52;;;;;;;;;;5079589;28;20040;-58
2024/03/10 14:19:11;;;;;;;1.23;0.60;;;;;;;;;;5068767;28;20048;-58
2024/03/10 14:21:38;;;;;;;0.65;0.50;;;;;;;;;;5067918;28;20032;-58
2024/03/10 14:24:03;;;;;;;0.50;0.50;;;;;;;;;;5068428;28;20051;-58
2024/03/10 14:26:29;;;;;;;1.17;0.50;;;;;;;;;;5070689;28;20380;-58
2024/03/10 14:28:55;;;;;;;0.65;0.50;;;;;;;;;;5070915;28;20486;-59
2024/03/10 14:31:20;;;;;;;3.05;0.60;;;;;;;;;;5068938;28;20086;-59
2024/03/10 14:33:46;;;;;;;1.00;0.60;;;;;;;;;;5071543;28;20540;-58
2024/03/10 14:36:11;;;;;;;2.67;0.77;;;;;;;;;;5070852;28;20487;-57
2024/03/10 14:38:36;;;;;;;0.98;0.50;;;;;;;;;;5071675;28;20063;-57
2024/03/10 14:41:02;;;;;;;1.33;0.60;;;;;;;;;;5070951;28;20035;-59
2024/03/10 14:43:27;;;;;;;0.57;0.40;;;;;;;;;;5070923;28;20134;-57
2024/03/10 14:45:54;;;;;;;0.70;0.50;;;;;;;;;;5070433;28;20032;-56
2024/03/10 14:48:20;;;;;;;0.47;0.47;;;;;;;;;;5069968;28;20112;-58
2024/03/10 14:50:46;;;;;;;0.45;0.40;;;;;;;;;;5069687;28;20048;-59
2024/03/10 14:53:12;;;;;;;0.98;0.40;;;;;;;;;;5070979;28;20048;-57
2024/03/10 14:55:38;;;;;;;0.30;0.30;;;;;;;;;;5070374;28;20440;-58
2024/03/10 14:58:04;;;;;;;0.52;0.50;;;;;;;;;;5070251;28;20063;-59
2024/03/10 15:00:33;;;;;;;0.95;0.60;;;;;;;;;;5070787;28;20049;-58
2024/03/10 15:03:05;;;;;;;0.88;0.55;;;;;;;;;;5070809;28;20056;-58